sensor_id;sensor_type;location;lat;lon;timestamp;P1;durP1;ratioP1;P2;durP2;ratioP2
1703;SDS011;849;48.780;9.216;2023-05-27T00:03:03;42.23;;;2.00;;
1703;SDS011;849;48.780;9.216;2023-05-27T00:05:43;41.77;;;2.10;;
1703;SDS011;849;48.780;9.216;2023-05-27T00:08:17;41.87;;;1.80;;
1703;SDS011;849;48.780;9.216;2023-05-27T00:10:51;41.77;;;1.80;;
1703;SDS011;849;48.780;9.216;2023-05-27T00:13:25;41.67;;;1.90;;
1703;SDS011;849;48.780;9.216;2023-05-27T00:15:57;41.57;;;2.00;;
1703;SDS011;849;48.780;9.216;2023-05-27T00:18:31;41.60;;;1.90;;
1703;SDS011;849;48.780;9.216;2023-05-27T00:21:15;41.70;;;1.80;;
1703;SDS011;849;48.780;9.216;2023-05-27T00:23:55;41.67;;;1.90;;
1703;SDS011;849;48.780;9.216;2023-05-27T00:26:28;41.77;;;1.93;;
1703;SDS011;849;48.780;9.216;2023-05-27T00:28:57;41.27;;;1.90;;
1703;SDS011;849;48.780;9.216;2023-05-27T00:31:38;41.30;;;1.73;;
1703;SDS011;849;48.780;9.216;2023-05-27T00:34:09;41.37;;;1.90;;
1703;SDS011;849;48.780;9.216;2023-05-27T00:36:42;41.30;;;1.80;;
1703;SDS011;849;48.780;9.216;2023-05-27T00:39:18;41.53;;;2.00;;
1703;SDS011;849;48.780;9.216;2023-05-27T00:41:53;41.30;;;1.90;;
1703;SDS011;849;48.780;9.216;2023-05-27T00:44:28;41.33;;;1.80;;
1703;SDS011;849;48.780;9.216;2023-05-27T00:46:59;41.37;;;1.80;;
1703;SDS011;849;48.780;9.216;2023-05-27T00:49:30;41.37;;;2.07;;
1703;SDS011;849;48.780;9.216;2023-05-27T00:52:04;41.30;;;1.80;;
1703;SDS011;849;48.780;9.216;2023-05-27T00:54:36;41.40;;;1.80;;
1703;SDS011;849;48.780;9.216;2023-05-27T00:57:07;41.23;;;1.80;;
1703;SDS011;849;48.780;9.216;2023-05-27T00:59:43;41.20;;;1.90;;
1703;SDS011;849;48.780;9.216;2023-05-27T01:02:15;41.20;;;1.80;;
1703;SDS011;849;48.780;9.216;2023-05-27T01:04:54;41.27;;;1.87;;
1703;SDS011;849;48.780;9.216;2023-05-27T01:07:35;41.30;;;1.90;;
1703;SDS011;849;48.780;9.216;2023-05-27T01:16:20;41.37;;;1.80;;
1703;SDS011;849;48.780;9.216;2023-05-27T01:18:59;41.27;;;1.80;;
1703;SDS011;849;48.780;9.216;2023-05-27T01:21:37;41.37;;;1.90;;
1703;SDS011;849;48.780;9.216;2023-05-27T01:24:13;41.27;;;1.90;;
1703;SDS011;849;48.780;9.216;2023-05-27T01:26:48;41.20;;;1.93;;
1703;SDS011;849;48.780;9.216;2023-05-27T01:29:32;41.27;;;1.80;;
1703;SDS011;849;48.780;9.216;2023-05-27T01:32:12;41.37;;;1.80;;
1703;SDS011;849;48.780;9.216;2023-05-27T01:35:08;41.40;;;1.90;;
1703;SDS011;849;48.780;9.216;2023-05-27T01:38:01;41.20;;;1.80;;
1703;SDS011;849;48.780;9.216;2023-05-27T01:40:36;41.13;;;1.90;;
1703;SDS011;849;48.780;9.216;2023-05-27T01:43:20;41.27;;;1.90;;
1703;SDS011;849;48.780;9.216;2023-05-27T01:45:57;41.33;;;1.80;;
1703;SDS011;849;48.780;9.216;2023-05-27T01:48:31;41.27;;;1.70;;
1703;SDS011;849;48.780;9.216;2023-05-27T01:51:02;41.37;;;1.90;;
1703;SDS011;849;48.780;9.216;2023-05-27T01:53:42;41.33;;;1.90;;
1703;SDS011;849;48.780;9.216;2023-05-27T01:56:45;41.27;;;1.80;;
1703;SDS011;849;48.780;9.216;2023-05-27T01:59:16;41.23;;;1.80;;
1703;SDS011;849;48.780;9.216;2023-05-27T02:01:59;41.20;;;1.87;;
1703;SDS011;849;48.780;9.216;2023-05-27T02:04:30;41.63;;;1.80;;
1703;SDS011;849;48.780;9.216;2023-05-27T02:07:11;41.63;;;2.00;;
1703;SDS011;849;48.780;9.216;2023-05-27T02:09:53;41.40;;;2.10;;
1703;SDS011;849;48.780;9.216;2023-05-27T02:12:21;41.30;;;1.90;;
1703;SDS011;849;48.780;9.216;2023-05-27T02:14:52;41.53;;;1.90;;
1703;SDS011;849;48.780;9.216;2023-05-27T02:17:26;41.70;;;2.10;;
1703;SDS011;849;48.780;9.216;2023-05-27T02:20:00;41.67;;;1.90;;
1703;SDS011;849;48.780;9.216;2023-05-27T02:22:34;41.57;;;1.90;;
1703;SDS011;849;48.780;9.216;2023-05-27T02:25:08;41.40;;;1.93;;
1703;SDS011;849;48.780;9.216;2023-05-27T02:27:45;41.80;;;2.07;;
1703;SDS011;849;48.780;9.216;2023-05-27T02:30:26;41.80;;;1.80;;
1703;SDS011;849;48.780;9.216;2023-05-27T02:32:54;41.63;;;1.77;;
1703;SDS011;849;48.780;9.216;2023-05-27T02:35:30;41.47;;;2.00;;
1703;SDS011;849;48.780;9.216;2023-05-27T02:38:08;41.57;;;1.73;;
1703;SDS011;849;48.780;9.216;2023-05-27T02:40:48;41.77;;;2.00;;
1703;SDS011;849;48.780;9.216;2023-05-27T02:43:19;36.07;;;1.97;;
1703;SDS011;849;48.780;9.216;2023-05-27T02:45:51;34.30;;;1.00;;
1703;SDS011;849;48.780;9.216;2023-05-27T02:48:22;32.50;;;2.07;;
1703;SDS011;849;48.780;9.216;2023-05-27T02:50:55;29.50;;;0.90;;
1703;SDS011;849;48.780;9.216;2023-05-27T02:53:26;27.10;;;0.80;;
1703;SDS011;849;48.780;9.216;2023-05-27T02:56:00;28.17;;;1.93;;
1703;SDS011;849;48.780;9.216;2023-05-27T02:58:33;27.00;;;0.80;;
1703;SDS011;849;48.780;9.216;2023-05-27T03:01:04;25.23;;;0.70;;
1703;SDS011;849;48.780;9.216;2023-05-27T03:03:44;25.33;;;1.30;;
1703;SDS011;849;48.780;9.216;2023-05-27T03:06:20;23.20;;;0.70;;
1703;SDS011;849;48.780;9.216;2023-05-27T03:08:57;23.53;;;0.70;;
1703;SDS011;849;48.780;9.216;2023-05-27T03:11:32;21.40;;;0.70;;
1703;SDS011;849;48.780;9.216;2023-05-27T03:14:09;22.30;;;0.70;;
1703;SDS011;849;48.780;9.216;2023-05-27T03:16:44;20.07;;;0.70;;
1703;SDS011;849;48.780;9.216;2023-05-27T03:19:23;18.70;;;0.60;;
1703;SDS011;849;48.780;9.216;2023-05-27T03:21:54;19.70;;;0.60;;
1703;SDS011;849;48.780;9.216;2023-05-27T03:24:29;19.80;;;0.70;;
1703;SDS011;849;48.780;9.216;2023-05-27T03:27:03;19.97;;;0.70;;
1703;SDS011;849;48.780;9.216;2023-05-27T03:29:34;19.87;;;0.70;;
1703;SDS011;849;48.780;9.216;2023-05-27T03:32:12;19.67;;;0.80;;
1703;SDS011;849;48.780;9.216;2023-05-27T03:34:47;20.67;;;0.70;;
1703;SDS011;849;48.780;9.216;2023-05-27T03:37:23;20.23;;;0.70;;
1703;SDS011;849;48.780;9.216;2023-05-27T03:39:50;19.23;;;0.70;;
1703;SDS011;849;48.780;9.216;2023-05-27T03:42:46;17.17;;;0.60;;
1703;SDS011;849;48.780;9.216;2023-05-27T03:45:20;18.07;;;0.70;;
1703;SDS011;849;48.780;9.216;2023-05-27T03:47:55;17.63;;;0.70;;
1703;SDS011;849;48.780;9.216;2023-05-27T03:50:36;15.20;;;0.60;;
1703;SDS011;849;48.780;9.216;2023-05-27T03:53:09;14.97;;;0.70;;
1703;SDS011;849;48.780;9.216;2023-05-27T03:55:43;16.17;;;0.70;;
1703;SDS011;849;48.780;9.216;2023-05-27T03:58:43;15.83;;;0.60;;
1703;SDS011;849;48.780;9.216;2023-05-27T04:01:32;15.33;;;0.60;;
1703;SDS011;849;48.780;9.216;2023-05-27T04:04:02;14.63;;;0.60;;
1703;SDS011;849;48.780;9.216;2023-05-27T04:07:02;13.47;;;0.60;;
1703;SDS011;849;48.780;9.216;2023-05-27T04:09:31;12.97;;;0.60;;
1703;SDS011;849;48.780;9.216;2023-05-27T04:12:03;13.53;;;0.60;;
1703;SDS011;849;48.780;9.216;2023-05-27T04:14:56;12.30;;;0.50;;
1703;SDS011;849;48.780;9.216;2023-05-27T04:17:50;11.77;;;0.50;;
1703;SDS011;849;48.780;9.216;2023-05-27T04:20:34;11.57;;;0.60;;
1703;SDS011;849;48.780;9.216;2023-05-27T04:23:18;11.40;;;0.60;;
1703;SDS011;849;48.780;9.216;2023-05-27T04:25:55;10.87;;;0.60;;
1703;SDS011;849;48.780;9.216;2023-05-27T04:28:33;11.30;;;0.60;;
1703;SDS011;849;48.780;9.216;2023-05-27T04:31:10;11.37;;;0.60;;
1703;SDS011;849;48.780;9.216;2023-05-27T04:33:46;11.30;;;0.60;;
1703;SDS011;849;48.780;9.216;2023-05-27T04:36:21;11.20;;;0.60;;
1703;SDS011;849;48.780;9.216;2023-05-27T04:39:00;11.43;;;0.50;;
1703;SDS011;849;48.780;9.216;2023-05-27T04:41:43;10.57;;;0.60;;
1703;SDS011;849;48.780;9.216;2023-05-27T04:44:16;10.47;;;0.50;;
1703;SDS011;849;48.780;9.216;2023-05-27T04:46:49;10.30;;;0.60;;
1703;SDS011;849;48.780;9.216;2023-05-27T04:49:33;10.50;;;0.70;;
1703;SDS011;849;48.780;9.216;2023-05-27T04:52:20;10.30;;;0.53;;
1703;SDS011;849;48.780;9.216;2023-05-27T04:54:56;10.37;;;0.60;;
1703;SDS011;849;48.780;9.216;2023-05-27T04:57:24;10.80;;;0.60;;
1703;SDS011;849;48.780;9.216;2023-05-27T05:00:03;11.20;;;0.50;;
1703;SDS011;849;48.780;9.216;2023-05-27T05:02:44;11.07;;;0.60;;
1703;SDS011;849;48.780;9.216;2023-05-27T05:05:22;10.97;;;0.60;;
1703;SDS011;849;48.780;9.216;2023-05-27T05:08:02;10.90;;;0.50;;
1703;SDS011;849;48.780;9.216;2023-05-27T05:10:40;11.53;;;0.60;;
1703;SDS011;849;48.780;9.216;2023-05-27T05:13:18;12.07;;;0.53;;
1703;SDS011;849;48.780;9.216;2023-05-27T05:15:52;12.87;;;0.60;;
1703;SDS011;849;48.780;9.216;2023-05-27T05:18:21;13.57;;;0.60;;
1703;SDS011;849;48.780;9.216;2023-05-27T05:21:02;14.13;;;0.60;;
1703;SDS011;849;48.780;9.216;2023-05-27T05:23:37;14.33;;;0.60;;
1703;SDS011;849;48.780;9.216;2023-05-27T05:26:31;14.97;;;0.60;;
1703;SDS011;849;48.780;9.216;2023-05-27T05:29:06;15.87;;;0.67;;
1703;SDS011;849;48.780;9.216;2023-05-27T05:31:42;16.63;;;0.70;;
1703;SDS011;849;48.780;9.216;2023-05-27T05:34:20;18.80;;;0.70;;
1703;SDS011;849;48.780;9.216;2023-05-27T05:36:58;19.73;;;0.80;;
1703;SDS011;849;48.780;9.216;2023-05-27T05:39:30;20.50;;;1.07;;
1703;SDS011;849;48.780;9.216;2023-05-27T05:42:05;20.80;;;0.70;;
1703;SDS011;849;48.780;9.216;2023-05-27T05:44:44;22.20;;;0.80;;
1703;SDS011;849;48.780;9.216;2023-05-27T05:47:19;24.50;;;0.80;;
1703;SDS011;849;48.780;9.216;2023-05-27T05:50:11;24.43;;;0.90;;
1703;SDS011;849;48.780;9.216;2023-05-27T05:52:43;27.07;;;0.80;;
1703;SDS011;849;48.780;9.216;2023-05-27T05:55:13;27.93;;;0.90;;
1703;SDS011;849;48.780;9.216;2023-05-27T05:57:59;27.93;;;0.80;;
1703;SDS011;849;48.780;9.216;2023-05-27T06:00:44;28.37;;;0.90;;
1703;SDS011;849;48.780;9.216;2023-05-27T06:03:17;28.80;;;1.20;;
1703;SDS011;849;48.780;9.216;2023-05-27T06:05:49;28.60;;;0.90;;
1703;SDS011;849;48.780;9.216;2023-05-27T06:08:30;28.70;;;0.83;;
1703;SDS011;849;48.780;9.216;2023-05-27T06:11:09;28.80;;;0.90;;
1703;SDS011;849;48.780;9.216;2023-05-27T06:13:45;29.10;;;1.07;;
1703;SDS011;849;48.780;9.216;2023-05-27T06:16:22;29.50;;;1.00;;
1703;SDS011;849;48.780;9.216;2023-05-27T06:18:59;29.30;;;1.00;;
1703;SDS011;849;48.780;9.216;2023-05-27T06:21:34;29.20;;;0.90;;
1703;SDS011;849;48.780;9.216;2023-05-27T06:24:11;29.10;;;0.90;;
1703;SDS011;849;48.780;9.216;2023-05-27T06:26:53;29.80;;;0.90;;
1703;SDS011;849;48.780;9.216;2023-05-27T06:29:32;30.77;;;1.20;;
1703;SDS011;849;48.780;9.216;2023-05-27T06:32:03;31.20;;;1.00;;
1703;SDS011;849;48.780;9.216;2023-05-27T06:34:35;32.30;;;1.30;;
1703;SDS011;849;48.780;9.216;2023-05-27T06:37:09;34.13;;;1.20;;
1703;SDS011;849;48.780;9.216;2023-05-27T06:39:48;33.90;;;1.67;;
1703;SDS011;849;48.780;9.216;2023-05-27T06:42:27;33.40;;;1.20;;
1703;SDS011;849;48.780;9.216;2023-05-27T06:45:01;33.90;;;2.90;;
1703;SDS011;849;48.780;9.216;2023-05-27T06:47:41;33.40;;;1.20;;
1703;SDS011;849;48.780;9.216;2023-05-27T06:50:19;33.87;;;1.20;;
1703;SDS011;849;48.780;9.216;2023-05-27T06:52:54;33.73;;;1.10;;
1703;SDS011;849;48.780;9.216;2023-05-27T06:55:40;33.87;;;1.30;;
1703;SDS011;849;48.780;9.216;2023-05-27T06:58:16;33.90;;;1.30;;
1703;SDS011;849;48.780;9.216;2023-05-27T07:00:54;34.97;;;1.20;;
1703;SDS011;849;48.780;9.216;2023-05-27T07:03:30;35.67;;;1.30;;
1703;SDS011;849;48.780;9.216;2023-05-27T07:06:09;37.50;;;1.97;;
1703;SDS011;849;48.780;9.216;2023-05-27T07:08:44;36.20;;;1.30;;
1703;SDS011;849;48.780;9.216;2023-05-27T07:11:24;38.30;;;1.40;;
1703;SDS011;849;48.780;9.216;2023-05-27T07:14:07;37.77;;;1.67;;
1703;SDS011;849;48.780;9.216;2023-05-27T07:16:48;39.73;;;1.80;;
1703;SDS011;849;48.780;9.216;2023-05-27T07:19:22;39.37;;;2.47;;
1703;SDS011;849;48.780;9.216;2023-05-27T07:22:01;38.97;;;1.67;;
1703;SDS011;849;48.780;9.216;2023-05-27T07:24:44;38.83;;;1.77;;
1703;SDS011;849;48.780;9.216;2023-05-27T07:27:15;38.63;;;1.70;;
1703;SDS011;849;48.780;9.216;2023-05-27T07:30:00;39.53;;;2.20;;
1703;SDS011;849;48.780;9.216;2023-05-27T07:32:35;39.83;;;1.87;;
1703;SDS011;849;48.780;9.216;2023-05-27T07:35:19;39.37;;;1.80;;
1703;SDS011;849;48.780;9.216;2023-05-27T07:37:53;39.27;;;1.70;;
1703;SDS011;849;48.780;9.216;2023-05-27T07:40:40;40.33;;;2.10;;
1703;SDS011;849;48.780;9.216;2023-05-27T07:43:14;41.23;;;2.40;;
1703;SDS011;849;48.780;9.216;2023-05-27T07:45:53;41.30;;;2.17;;
1703;SDS011;849;48.780;9.216;2023-05-27T07:48:30;41.37;;;2.30;;
1703;SDS011;849;48.780;9.216;2023-05-27T07:51:23;40.97;;;2.20;;
1703;SDS011;849;48.780;9.216;2023-05-27T07:54:02;40.80;;;1.97;;
1703;SDS011;849;48.780;9.216;2023-05-27T07:56:39;41.17;;;2.30;;
1703;SDS011;849;48.780;9.216;2023-05-27T07:59:17;40.93;;;2.10;;
1703;SDS011;849;48.780;9.216;2023-05-27T08:01:49;40.90;;;2.33;;
1703;SDS011;849;48.780;9.216;2023-05-27T08:04:23;42.40;;;4.63;;
1703;SDS011;849;48.780;9.216;2023-05-27T08:07:06;42.10;;;2.50;;
1703;SDS011;849;48.780;9.216;2023-05-27T08:09:42;42.77;;;3.70;;
1703;SDS011;849;48.780;9.216;2023-05-27T08:12:35;42.70;;;2.50;;
1703;SDS011;849;48.780;9.216;2023-05-27T08:15:14;41.80;;;2.67;;
1703;SDS011;849;48.780;9.216;2023-05-27T08:17:52;41.17;;;2.20;;
1703;SDS011;849;48.780;9.216;2023-05-27T08:20:41;41.13;;;2.00;;
1703;SDS011;849;48.780;9.216;2023-05-27T08:26:20;42.47;;;2.20;;
1703;SDS011;849;48.780;9.216;2023-05-27T08:29:00;42.87;;;2.60;;
1703;SDS011;849;48.780;9.216;2023-05-27T08:31:37;42.97;;;2.43;;
1703;SDS011;849;48.780;9.216;2023-05-27T08:34:11;42.93;;;2.30;;
1703;SDS011;849;48.780;9.216;2023-05-27T08:36:52;43.23;;;2.67;;
1703;SDS011;849;48.780;9.216;2023-05-27T08:39:28;44.07;;;2.60;;
1703;SDS011;849;48.780;9.216;2023-05-27T08:42:01;43.90;;;2.90;;
1703;SDS011;849;48.780;9.216;2023-05-27T08:44:33;44.20;;;2.67;;
1703;SDS011;849;48.780;9.216;2023-05-27T08:47:10;44.67;;;3.20;;
1703;SDS011;849;48.780;9.216;2023-05-27T08:49:41;44.00;;;2.60;;
1703;SDS011;849;48.780;9.216;2023-05-27T08:52:18;43.67;;;2.60;;
1703;SDS011;849;48.780;9.216;2023-05-27T08:54:57;43.60;;;2.40;;
1703;SDS011;849;48.780;9.216;2023-05-27T08:57:31;43.57;;;2.80;;
1703;SDS011;849;48.780;9.216;2023-05-27T09:00:06;43.77;;;2.50;;
1703;SDS011;849;48.780;9.216;2023-05-27T09:02:46;45.50;;;3.60;;
1703;SDS011;849;48.780;9.216;2023-05-27T09:05:17;45.20;;;3.40;;
1703;SDS011;849;48.780;9.216;2023-05-27T09:07:54;45.13;;;2.90;;
1703;SDS011;849;48.780;9.216;2023-05-27T09:13:35;45.67;;;4.80;;
1703;SDS011;849;48.780;9.216;2023-05-27T09:16:09;48.20;;;5.93;;
1703;SDS011;849;48.780;9.216;2023-05-27T09:18:56;45.60;;;3.73;;
1703;SDS011;849;48.780;9.216;2023-05-27T09:21:28;45.60;;;3.40;;
1703;SDS011;849;48.780;9.216;2023-05-27T09:24:14;46.53;;;5.37;;
1703;SDS011;849;48.780;9.216;2023-05-27T09:26:49;45.80;;;3.20;;
1703;SDS011;849;48.780;9.216;2023-05-27T09:29:29;46.03;;;3.80;;
1703;SDS011;849;48.780;9.216;2023-05-27T09:32:07;45.70;;;3.40;;
1703;SDS011;849;48.780;9.216;2023-05-27T09:34:46;45.40;;;3.20;;
1703;SDS011;849;48.780;9.216;2023-05-27T09:37:29;47.00;;;3.63;;
1703;SDS011;849;48.780;9.216;2023-05-27T09:40:08;45.80;;;3.50;;
1703;SDS011;849;48.780;9.216;2023-05-27T09:42:49;46.50;;;3.40;;
1703;SDS011;849;48.780;9.216;2023-05-27T09:45:24;46.40;;;3.90;;
1703;SDS011;849;48.780;9.216;2023-05-27T09:48:14;45.43;;;3.50;;
1703;SDS011;849;48.780;9.216;2023-05-27T09:50:54;46.10;;;3.50;;
1703;SDS011;849;48.780;9.216;2023-05-27T09:53:33;46.53;;;4.20;;
1703;SDS011;849;48.780;9.216;2023-05-27T09:56:11;46.70;;;4.10;;
1703;SDS011;849;48.780;9.216;2023-05-27T09:58:57;46.60;;;3.70;;
1703;SDS011;849;48.780;9.216;2023-05-27T10:01:47;46.33;;;3.40;;
1703;SDS011;849;48.780;9.216;2023-05-27T10:04:29;46.20;;;3.27;;
1703;SDS011;849;48.780;9.216;2023-05-27T10:07:08;46.70;;;3.60;;
1703;SDS011;849;48.780;9.216;2023-05-27T10:09:51;46.60;;;3.43;;
1703;SDS011;849;48.780;9.216;2023-05-27T10:12:26;46.80;;;3.40;;
1703;SDS011;849;48.780;9.216;2023-05-27T10:15:29;46.63;;;3.30;;
1703;SDS011;849;48.780;9.216;2023-05-27T10:18:09;46.50;;;3.60;;
1703;SDS011;849;48.780;9.216;2023-05-27T10:21:05;46.30;;;3.77;;
1703;SDS011;849;48.780;9.216;2023-05-27T10:23:40;46.90;;;4.00;;
1703;SDS011;849;48.780;9.216;2023-05-27T10:26:13;46.67;;;3.57;;
1703;SDS011;849;48.780;9.216;2023-05-27T10:28:46;47.00;;;3.60;;
1703;SDS011;849;48.780;9.216;2023-05-27T10:31:18;47.00;;;3.70;;
1703;SDS011;849;48.780;9.216;2023-05-27T10:33:57;46.17;;;3.77;;
1703;SDS011;849;48.780;9.216;2023-05-27T10:36:33;46.63;;;3.60;;
1703;SDS011;849;48.780;9.216;2023-05-27T10:39:13;47.10;;;3.40;;
1703;SDS011;849;48.780;9.216;2023-05-27T10:41:52;46.80;;;3.50;;
1703;SDS011;849;48.780;9.216;2023-05-27T10:44:33;49.13;;;4.07;;
1703;SDS011;849;48.780;9.216;2023-05-27T10:47:16;46.40;;;3.50;;
1703;SDS011;849;48.780;9.216;2023-05-27T10:49:58;46.33;;;3.30;;
1703;SDS011;849;48.780;9.216;2023-05-27T10:52:43;46.57;;;3.83;;
1703;SDS011;849;48.780;9.216;2023-05-27T10:55:21;46.40;;;3.40;;
1703;SDS011;849;48.780;9.216;2023-05-27T10:58:10;46.20;;;3.40;;
1703;SDS011;849;48.780;9.216;2023-05-27T11:01:15;46.20;;;3.40;;
1703;SDS011;849;48.780;9.216;2023-05-27T11:03:57;46.20;;;3.70;;
1703;SDS011;849;48.780;9.216;2023-05-27T11:06:34;46.30;;;3.50;;
1703;SDS011;849;48.780;9.216;2023-05-27T11:09:06;46.10;;;3.30;;
1703;SDS011;849;48.780;9.216;2023-05-27T11:11:43;46.07;;;3.40;;
1703;SDS011;849;48.780;9.216;2023-05-27T11:14:38;46.10;;;3.60;;
1703;SDS011;849;48.780;9.216;2023-05-27T11:17:18;46.27;;;3.70;;
1703;SDS011;849;48.780;9.216;2023-05-27T11:19:55;45.20;;;3.20;;
1703;SDS011;849;48.780;9.216;2023-05-27T11:22:37;45.60;;;3.47;;
1703;SDS011;849;48.780;9.216;2023-05-27T11:25:22;45.47;;;3.10;;
1703;SDS011;849;48.780;9.216;2023-05-27T11:28:28;44.77;;;3.17;;
1703;SDS011;849;48.780;9.216;2023-05-27T11:31:03;44.90;;;3.20;;
1703;SDS011;849;48.780;9.216;2023-05-27T11:33:40;44.77;;;3.00;;
1703;SDS011;849;48.780;9.216;2023-05-27T11:36:27;44.60;;;2.90;;
1703;SDS011;849;48.780;9.216;2023-05-27T11:39:02;45.07;;;3.20;;
1703;SDS011;849;48.780;9.216;2023-05-27T11:41:54;44.90;;;3.10;;
1703;SDS011;849;48.780;9.216;2023-05-27T11:44:36;44.80;;;2.90;;
1703;SDS011;849;48.780;9.216;2023-05-27T11:47:10;45.07;;;2.97;;
1703;SDS011;849;48.780;9.216;2023-05-27T11:49:43;44.50;;;3.10;;
1703;SDS011;849;48.780;9.216;2023-05-27T11:52:24;44.27;;;3.00;;
1703;SDS011;849;48.780;9.216;2023-05-27T11:54:56;44.20;;;3.00;;
1703;SDS011;849;48.780;9.216;2023-05-27T11:57:34;43.80;;;3.10;;
1703;SDS011;849;48.780;9.216;2023-05-27T12:00:13;44.00;;;2.60;;
1703;SDS011;849;48.780;9.216;2023-05-27T12:02:56;43.80;;;2.53;;
1703;SDS011;849;48.780;9.216;2023-05-27T12:05:36;44.43;;;2.90;;
1703;SDS011;849;48.780;9.216;2023-05-27T12:08:08;44.00;;;3.07;;
1703;SDS011;849;48.780;9.216;2023-05-27T12:10:41;44.00;;;2.53;;
1703;SDS011;849;48.780;9.216;2023-05-27T12:13:22;44.13;;;2.60;;
1703;SDS011;849;48.780;9.216;2023-05-27T12:15:59;43.80;;;2.57;;
1703;SDS011;849;48.780;9.216;2023-05-27T12:18:36;43.73;;;2.83;;
1703;SDS011;849;48.780;9.216;2023-05-27T12:21:14;43.90;;;2.90;;
1703;SDS011;849;48.780;9.216;2023-05-27T12:23:48;43.57;;;2.57;;
1703;SDS011;849;48.780;9.216;2023-05-27T12:26:22;43.43;;;2.73;;
1703;SDS011;849;48.780;9.216;2023-05-27T12:29:02;43.50;;;2.60;;
1703;SDS011;849;48.780;9.216;2023-05-27T12:31:36;43.60;;;3.13;;
1703;SDS011;849;48.780;9.216;2023-05-27T12:34:12;43.40;;;2.50;;
1703;SDS011;849;48.780;9.216;2023-05-27T12:36:57;43.70;;;2.80;;
1703;SDS011;849;48.780;9.216;2023-05-27T12:39:34;43.70;;;2.63;;
1703;SDS011;849;48.780;9.216;2023-05-27T12:42:05;43.67;;;2.53;;
1703;SDS011;849;48.780;9.216;2023-05-27T12:44:36;43.63;;;2.40;;
1703;SDS011;849;48.780;9.216;2023-05-27T12:47:10;43.30;;;2.50;;
1703;SDS011;849;48.780;9.216;2023-05-27T12:49:43;43.57;;;2.80;;
1703;SDS011;849;48.780;9.216;2023-05-27T12:52:22;43.20;;;2.47;;
1703;SDS011;849;48.780;9.216;2023-05-27T12:54:59;43.67;;;2.43;;
1703;SDS011;849;48.780;9.216;2023-05-27T12:57:30;43.10;;;2.73;;
1703;SDS011;849;48.780;9.216;2023-05-27T13:00:09;43.30;;;2.80;;
1703;SDS011;849;48.780;9.216;2023-05-27T13:02:46;43.50;;;2.67;;
1703;SDS011;849;48.780;9.216;2023-05-27T13:05:20;43.40;;;2.30;;
1703;SDS011;849;48.780;9.216;2023-05-27T13:08:06;43.00;;;2.50;;
1703;SDS011;849;48.780;9.216;2023-05-27T13:10:51;41.67;;;2.10;;
1703;SDS011;849;48.780;9.216;2023-05-27T13:13:26;41.63;;;2.10;;
1703;SDS011;849;48.780;9.216;2023-05-27T13:16:03;41.07;;;2.00;;
1703;SDS011;849;48.780;9.216;2023-05-27T13:18:34;41.27;;;2.10;;
1703;SDS011;849;48.780;9.216;2023-05-27T13:21:09;41.30;;;2.13;;
1703;SDS011;849;48.780;9.216;2023-05-27T13:23:44;41.70;;;2.07;;
1703;SDS011;849;48.780;9.216;2023-05-27T13:26:18;41.20;;;2.30;;
1703;SDS011;849;48.780;9.216;2023-05-27T13:28:51;41.67;;;2.30;;
1703;SDS011;849;48.780;9.216;2023-05-27T13:31:25;41.40;;;2.23;;
1703;SDS011;849;48.780;9.216;2023-05-27T13:33:55;41.50;;;2.13;;
1703;SDS011;849;48.780;9.216;2023-05-27T13:36:33;41.40;;;2.40;;
1703;SDS011;849;48.780;9.216;2023-05-27T13:39:09;41.37;;;2.17;;
1703;SDS011;849;48.780;9.216;2023-05-27T13:41:46;41.57;;;2.10;;
1703;SDS011;849;48.780;9.216;2023-05-27T13:44:19;41.57;;;2.00;;
1703;SDS011;849;48.780;9.216;2023-05-27T13:47:05;41.10;;;2.10;;
1703;SDS011;849;48.780;9.216;2023-05-27T13:49:42;41.47;;;2.50;;
1703;SDS011;849;48.780;9.216;2023-05-27T13:52:14;41.67;;;2.00;;
1703;SDS011;849;48.780;9.216;2023-05-27T13:54:49;41.47;;;2.23;;
1703;SDS011;849;48.780;9.216;2023-05-27T13:57:22;41.40;;;2.30;;
1703;SDS011;849;48.780;9.216;2023-05-27T14:00:16;41.40;;;2.30;;
1703;SDS011;849;48.780;9.216;2023-05-27T14:02:48;41.53;;;2.10;;
1703;SDS011;849;48.780;9.216;2023-05-27T14:05:25;40.90;;;2.00;;
1703;SDS011;849;48.780;9.216;2023-05-27T14:08:04;41.20;;;2.10;;
1703;SDS011;849;48.780;9.216;2023-05-27T14:10:42;41.67;;;2.00;;
1703;SDS011;849;48.780;9.216;2023-05-27T14:13:24;41.73;;;2.17;;
1703;SDS011;849;48.780;9.216;2023-05-27T14:16:03;41.23;;;2.10;;
1703;SDS011;849;48.780;9.216;2023-05-27T14:18:40;41.33;;;2.00;;
1703;SDS011;849;48.780;9.216;2023-05-27T14:21:12;41.00;;;2.00;;
1703;SDS011;849;48.780;9.216;2023-05-27T14:23:56;41.00;;;1.90;;
1703;SDS011;849;48.780;9.216;2023-05-27T14:26:41;41.17;;;2.00;;
1703;SDS011;849;48.780;9.216;2023-05-27T14:29:14;41.30;;;2.10;;
1703;SDS011;849;48.780;9.216;2023-05-27T14:31:47;41.57;;;2.20;;
1703;SDS011;849;48.780;9.216;2023-05-27T14:34:26;41.87;;;2.27;;
1703;SDS011;849;48.780;9.216;2023-05-27T14:37:13;41.10;;;2.00;;
1703;SDS011;849;48.780;9.216;2023-05-27T14:39:52;40.80;;;2.10;;
1703;SDS011;849;48.780;9.216;2023-05-27T14:42:37;41.60;;;1.97;;
1703;SDS011;849;48.780;9.216;2023-05-27T14:45:11;41.50;;;2.00;;
1703;SDS011;849;48.780;9.216;2023-05-27T14:47:45;41.00;;;2.10;;
1703;SDS011;849;48.780;9.216;2023-05-27T14:50:21;41.20;;;1.93;;
1703;SDS011;849;48.780;9.216;2023-05-27T14:52:56;41.77;;;2.23;;
1703;SDS011;849;48.780;9.216;2023-05-27T14:55:36;41.00;;;2.00;;
1703;SDS011;849;48.780;9.216;2023-05-27T14:58:17;41.10;;;2.07;;
1703;SDS011;849;48.780;9.216;2023-05-27T15:00:51;41.20;;;2.03;;
1703;SDS011;849;48.780;9.216;2023-05-27T15:06:36;41.30;;;2.00;;
1703;SDS011;849;48.780;9.216;2023-05-27T15:09:08;41.50;;;2.33;;
1703;SDS011;849;48.780;9.216;2023-05-27T15:11:42;41.40;;;2.00;;
1703;SDS011;849;48.780;9.216;2023-05-27T15:14:22;41.40;;;2.00;;
1703;SDS011;849;48.780;9.216;2023-05-27T15:16:57;41.17;;;2.10;;
1703;SDS011;849;48.780;9.216;2023-05-27T15:19:38;41.50;;;2.00;;
1703;SDS011;849;48.780;9.216;2023-05-27T15:22:13;41.43;;;2.20;;
1703;SDS011;849;48.780;9.216;2023-05-27T15:24:51;41.00;;;2.10;;
1703;SDS011;849;48.780;9.216;2023-05-27T15:27:34;41.40;;;2.10;;
1703;SDS011;849;48.780;9.216;2023-05-27T15:30:08;40.70;;;1.87;;
1703;SDS011;849;48.780;9.216;2023-05-27T15:32:47;40.73;;;2.07;;
1703;SDS011;849;48.780;9.216;2023-05-27T15:35:30;40.73;;;2.20;;
1703;SDS011;849;48.780;9.216;2023-05-27T15:38:17;41.10;;;1.80;;
1703;SDS011;849;48.780;9.216;2023-05-27T15:40:52;40.97;;;2.10;;
1703;SDS011;849;48.780;9.216;2023-05-27T15:43:35;41.07;;;2.10;;
1703;SDS011;849;48.780;9.216;2023-05-27T15:46:13;40.77;;;2.00;;
1703;SDS011;849;48.780;9.216;2023-05-27T15:48:45;40.70;;;1.93;;
1703;SDS011;849;48.780;9.216;2023-05-27T15:51:37;40.27;;;1.83;;
1703;SDS011;849;48.780;9.216;2023-05-27T15:54:15;40.47;;;1.80;;
1703;SDS011;849;48.780;9.216;2023-05-27T15:56:53;40.57;;;2.00;;
1703;SDS011;849;48.780;9.216;2023-05-27T15:59:42;40.77;;;2.13;;
1703;SDS011;849;48.780;9.216;2023-05-27T16:05:32;40.77;;;2.00;;
1703;SDS011;849;48.780;9.216;2023-05-27T16:08:24;40.80;;;2.37;;
1703;SDS011;849;48.780;9.216;2023-05-27T16:11:04;40.53;;;1.97;;
1703;SDS011;849;48.780;9.216;2023-05-27T16:13:41;40.63;;;2.00;;
1703;SDS011;849;48.780;9.216;2023-05-27T16:16:21;40.73;;;2.20;;
1703;SDS011;849;48.780;9.216;2023-05-27T16:18:54;41.03;;;3.83;;
1703;SDS011;849;48.780;9.216;2023-05-27T16:21:30;40.63;;;2.20;;
1703;SDS011;849;48.780;9.216;2023-05-27T16:24:12;40.53;;;2.10;;
1703;SDS011;849;48.780;9.216;2023-05-27T16:26:47;40.63;;;2.10;;
1703;SDS011;849;48.780;9.216;2023-05-27T16:29:21;40.50;;;1.83;;
1703;SDS011;849;48.780;9.216;2023-05-27T16:31:56;40.47;;;2.00;;
1703;SDS011;849;48.780;9.216;2023-05-27T16:34:26;40.70;;;2.00;;
1703;SDS011;849;48.780;9.216;2023-05-27T16:37:07;40.70;;;1.93;;
1703;SDS011;849;48.780;9.216;2023-05-27T16:39:39;40.73;;;2.00;;
1703;SDS011;849;48.780;9.216;2023-05-27T16:42:11;40.67;;;1.90;;